createdAt,value
2018-09-03T00:02:15.267Z,3.27
2018-09-03T00:04:43.561Z,2.80
2018-09-03T00:07:11.962Z,3.40
2018-09-03T00:09:40.263Z,3.30
2018-09-03T00:12:08.969Z,2.77
2018-09-03T00:14:37.245Z,3.00
2018-09-03T00:17:06.214Z,3.00
2018-09-03T00:19:34.533Z,2.73
2018-09-03T00:22:02.827Z,3.70
2018-09-03T00:24:31.175Z,2.90
2018-09-03T00:26:59.436Z,3.10
2018-09-03T00:29:27.702Z,3.10
2018-09-03T00:32:01.267Z,3.23
2018-09-03T00:34:34.975Z,3.07
2018-09-03T00:37:08.588Z,3.67
2018-09-03T00:39:42.358Z,2.93
2018-09-03T00:42:16.079Z,3.10
2018-09-03T00:44:49.883Z,3.00
2018-09-03T00:47:18.232Z,2.83
2018-09-03T00:49:46.473Z,3.17
2018-09-03T00:52:14.796Z,2.90
2018-09-03T00:54:43.046Z,3.63
2018-09-03T00:57:11.321Z,3.07
2018-09-03T00:59:39.619Z,3.60
2018-09-03T01:02:07.899Z,3.27
2018-09-03T01:04:36.175Z,3.53
2018-09-03T01:07:04.444Z,2.97
2018-09-03T01:09:32.721Z,3.50
2018-09-03T01:12:01.006Z,3.00
2018-09-03T01:14:29.298Z,3.40
2018-09-03T01:16:57.539Z,3.10
2018-09-03T01:19:25.859Z,2.70
2018-09-03T01:21:54.104Z,3.83
2018-09-03T01:24:22.350Z,3.60
2018-09-03T01:26:50.650Z,3.20
2018-09-03T01:29:18.950Z,3.37
2018-09-03T01:31:47.202Z,3.23
2018-09-03T01:34:15.462Z,2.70
2018-09-03T01:36:43.777Z,3.20
2018-09-03T01:39:14.075Z,2.97
2018-09-03T01:41:42.371Z,3.17
2018-09-03T01:44:10.636Z,3.20
2018-09-03T01:46:38.942Z,3.53
2018-09-03T01:49:07.196Z,3.17
2018-09-03T01:51:36.535Z,2.60
2018-09-03T01:54:04.779Z,3.43
2018-09-03T01:56:33.086Z,2.70
2018-09-03T01:59:01.408Z,3.00
2018-09-03T02:01:29.709Z,3.37
2018-09-03T02:03:57.998Z,3.10
2018-09-03T02:06:26.251Z,3.63
2018-09-03T02:08:54.548Z,3.00
2018-09-03T02:11:22.796Z,3.30
2018-09-03T02:13:51.125Z,3.37
2018-09-03T02:16:19.375Z,3.30
2018-09-03T02:18:47.649Z,2.73
2018-09-03T02:21:15.925Z,3.00
2018-09-03T02:23:44.220Z,3.10
2018-09-03T02:26:12.518Z,3.63
2018-09-03T02:28:40.746Z,3.20
2018-09-03T02:31:09.014Z,3.10
2018-09-03T02:33:37.298Z,2.97
2018-09-03T02:36:05.793Z,3.67
2018-09-03T02:38:34.056Z,3.77
2018-09-03T02:41:02.352Z,3.47
2018-09-03T02:43:30.644Z,3.60
2018-09-03T02:45:58.887Z,3.53
2018-09-03T02:48:27.173Z,3.13
2018-09-03T02:50:55.413Z,3.90
2018-09-03T02:53:23.733Z,3.60
2018-09-03T02:55:52.020Z,3.77
2018-09-03T02:58:20.292Z,3.80
2018-09-03T03:00:48.551Z,3.27
2018-09-03T03:03:16.919Z,3.57
2018-09-03T03:05:45.224Z,3.30
2018-09-03T03:08:13.501Z,3.23
2018-09-03T03:10:41.836Z,3.50
2018-09-03T03:13:10.177Z,4.20
2018-09-03T03:15:39.478Z,4.23
2018-09-03T03:18:07.742Z,3.00
2018-09-03T03:20:36.008Z,2.80
2018-09-03T03:23:04.290Z,2.97
2018-09-03T03:25:32.545Z,3.57
2018-09-03T03:28:00.844Z,4.00
2018-09-03T03:30:29.156Z,3.13
2018-09-03T03:32:57.424Z,2.90
2018-09-03T03:35:25.698Z,3.80
2018-09-03T03:37:54.027Z,3.30
2018-09-03T03:40:22.359Z,3.73
2018-09-03T03:42:50.628Z,3.47
2018-09-03T03:45:18.881Z,3.53
2018-09-03T03:47:47.163Z,3.37
2018-09-03T03:50:15.441Z,3.50
2018-09-03T03:52:43.729Z,3.37
2018-09-03T03:55:11.980Z,3.67
2018-09-03T03:57:40.305Z,3.70
2018-09-03T04:00:08.518Z,4.00
2018-09-03T04:02:36.834Z,3.50
2018-09-03T04:05:05.423Z,3.27
2018-09-03T04:07:33.736Z,3.30
2018-09-03T04:10:02.072Z,3.10
2018-09-03T04:12:30.401Z,3.50
2018-09-03T04:14:58.752Z,3.27
2018-09-03T04:17:27.093Z,3.37
2018-09-03T04:20:03.050Z,3.33
2018-09-03T04:22:34.512Z,3.27
2018-09-03T04:25:03.623Z,3.83
2018-09-03T04:27:31.877Z,3.53
2018-09-03T04:30:00.160Z,3.43
2018-09-03T04:32:28.476Z,3.40
2018-09-03T04:34:56.835Z,3.30
2018-09-03T04:37:25.189Z,3.60
2018-09-03T04:39:53.483Z,3.53
2018-09-03T04:42:21.764Z,3.67
2018-09-03T04:44:50.036Z,3.70
2018-09-03T04:47:18.301Z,3.33
2018-09-03T04:49:46.595Z,3.50
2018-09-03T04:52:14.867Z,3.23
2018-09-03T04:54:43.228Z,3.30
2018-09-03T04:57:11.516Z,2.80
2018-09-03T04:59:40.844Z,3.93
2018-09-03T05:02:09.120Z,3.33
2018-09-03T05:04:37.428Z,3.40
2018-09-03T05:07:05.904Z,3.10
2018-09-03T05:09:34.279Z,3.07
2018-09-03T05:12:02.647Z,3.27
2018-09-03T05:14:31.065Z,3.07
2018-09-03T05:16:59.354Z,3.40
2018-09-03T05:19:27.710Z,3.30
2018-09-03T05:21:56.087Z,3.23
2018-09-03T05:24:24.438Z,2.50
2018-09-03T05:26:52.675Z,2.47
2018-09-03T05:29:20.970Z,3.10
2018-09-03T05:31:49.236Z,3.93
2018-09-03T05:34:17.547Z,3.33
2018-09-03T05:36:45.914Z,2.80
2018-09-03T05:39:14.174Z,2.80
2018-09-03T05:41:42.427Z,3.13
2018-09-03T05:44:11.137Z,2.80
2018-09-03T05:46:39.918Z,3.05
2018-09-03T05:49:08.311Z,2.93
2018-09-03T05:51:36.603Z,2.77
2018-09-03T05:54:04.950Z,3.00
2018-09-03T05:56:33.236Z,3.10
2018-09-03T05:59:01.545Z,2.90
2018-09-03T06:04:03.696Z,3.00
2018-09-03T06:06:31.988Z,2.70
2018-09-03T06:09:00.365Z,2.77
2018-09-03T06:11:28.707Z,3.12
2018-09-03T06:13:57.044Z,3.27
2018-09-03T06:16:25.430Z,2.75
2018-09-03T06:18:53.804Z,2.40
2018-09-03T06:21:22.054Z,3.50
2018-09-03T06:23:50.347Z,2.45
2018-09-03T06:26:18.704Z,3.00
2018-09-03T06:28:47.041Z,2.95
2018-09-03T06:31:15.353Z,2.90
2018-09-03T06:33:43.651Z,3.27
2018-09-03T06:36:11.905Z,3.33
2018-09-03T06:38:40.235Z,3.05
2018-09-03T06:41:08.572Z,3.37
2018-09-03T06:43:36.925Z,3.37
2018-09-03T06:46:05.219Z,2.72
2018-09-03T06:48:33.520Z,3.17
2018-09-03T06:51:01.816Z,2.72
2018-09-03T06:53:30.258Z,3.10
2018-09-03T06:55:58.540Z,2.70
2018-09-03T06:58:26.827Z,3.25
2018-09-03T07:00:55.153Z,2.87
2018-09-03T07:03:23.462Z,3.10
2018-09-03T07:05:51.744Z,2.95
2018-09-03T07:08:20.021Z,2.67
2018-09-03T07:10:48.310Z,3.25
2018-09-03T07:13:16.637Z,3.05
2018-09-03T07:15:44.973Z,2.95
2018-09-03T07:18:13.178Z,2.98
2018-09-03T07:20:41.502Z,2.87
2018-09-03T07:23:09.781Z,3.45
2018-09-03T07:25:38.080Z,3.02
2018-09-03T07:28:06.309Z,2.87
2018-09-03T07:30:34.666Z,2.92
2018-09-03T07:33:03.005Z,3.58
2018-09-03T07:35:31.297Z,2.95
2018-09-03T07:37:59.542Z,2.83
2018-09-03T07:40:27.903Z,3.22
2018-09-03T07:42:56.197Z,3.05
2018-09-03T07:45:24.493Z,3.58
2018-09-03T07:47:52.771Z,3.95
2018-09-03T07:50:21.084Z,3.25
2018-09-03T07:52:49.408Z,3.80
2018-09-03T07:55:17.731Z,3.20
2018-09-03T07:57:45.960Z,2.75
2018-09-03T08:00:14.592Z,3.15
2018-09-03T08:02:42.850Z,3.40
2018-09-03T08:05:11.259Z,2.62
2018-09-03T08:07:39.618Z,3.42
2018-09-03T08:10:09.288Z,2.77
2018-09-03T08:12:37.824Z,3.77
2018-09-03T08:15:06.447Z,3.10
2018-09-03T08:17:34.766Z,3.55
2018-09-03T08:20:03.054Z,3.55
2018-09-03T08:22:31.297Z,3.45
2018-09-03T08:24:59.619Z,2.95
2018-09-03T08:27:28.065Z,3.17
2018-09-03T08:29:56.383Z,3.35
2018-09-03T08:32:24.700Z,3.67
2018-09-03T08:34:53.099Z,3.60
2018-09-03T08:37:21.474Z,3.27
2018-09-03T08:39:49.859Z,3.55
2018-09-03T08:42:18.151Z,3.50
2018-09-03T08:44:46.480Z,3.17
2018-09-03T08:47:14.705Z,3.65
2018-09-03T08:49:43.066Z,3.60
2018-09-03T08:52:11.441Z,3.22
2018-09-03T08:54:39.769Z,3.37
2018-09-03T08:57:08.018Z,3.42
2018-09-03T08:59:36.333Z,2.90
2018-09-03T09:02:04.848Z,3.02
2018-09-03T09:04:33.152Z,3.52
2018-09-03T09:07:01.410Z,3.37
2018-09-03T09:09:29.693Z,3.10
2018-09-03T09:11:58.037Z,2.98
2018-09-03T09:14:26.331Z,2.83
2018-09-03T09:16:54.687Z,2.80
2018-09-03T09:19:23.035Z,3.20
2018-09-03T09:21:51.329Z,3.72
2018-09-03T09:24:19.735Z,3.42
2018-09-03T09:26:48.136Z,2.87
2018-09-03T09:29:16.527Z,2.85
2018-09-03T09:31:44.833Z,3.12
2018-09-03T09:34:13.068Z,3.60
2018-09-03T09:36:41.481Z,3.52
2018-09-03T09:39:10.375Z,3.12
2018-09-03T09:41:38.690Z,3.27
2018-09-03T09:44:07.078Z,3.33
2018-09-03T09:46:35.640Z,2.90
2018-09-03T09:49:04.068Z,3.42
2018-09-03T09:51:33.398Z,3.47
2018-09-03T09:54:01.666Z,3.30
2018-09-03T09:56:30.007Z,2.87
2018-09-03T09:58:58.347Z,3.05
2018-09-03T10:01:31.955Z,3.42
2018-09-03T10:04:00.407Z,3.37
2018-09-03T10:06:28.724Z,2.92
2018-09-03T10:08:57.389Z,3.17
2018-09-03T10:11:26.162Z,3.12
2018-09-03T10:13:54.436Z,3.50
2018-09-03T10:16:22.728Z,2.90
2018-09-03T10:18:51.298Z,3.45
2018-09-03T10:21:19.550Z,3.55
2018-09-03T10:23:47.849Z,3.87
2018-09-03T10:26:16.160Z,3.22
2018-09-03T10:28:44.623Z,3.77
2018-09-03T10:31:12.921Z,3.55
2018-09-03T10:33:41.305Z,4.00
2018-09-03T10:36:09.687Z,3.75
2018-09-03T10:38:38.160Z,3.95
2018-09-03T10:41:06.503Z,3.25
2018-09-03T10:43:34.745Z,3.50
2018-09-03T10:46:03.126Z,3.92
2018-09-03T10:48:31.403Z,3.33
2018-09-03T10:50:59.775Z,3.70
2018-09-03T10:53:28.087Z,3.87
2018-09-03T10:55:56.337Z,3.87
2018-09-03T10:58:24.672Z,4.03
2018-09-03T11:00:52.954Z,4.28
2018-09-03T11:03:21.200Z,4.72
2018-09-03T11:05:50.018Z,3.65
2018-09-03T11:08:18.252Z,3.60
2018-09-03T11:10:46.876Z,3.87
2018-09-03T11:13:15.168Z,3.47
2018-09-03T11:15:43.531Z,3.70
2018-09-03T11:18:11.808Z,3.95
2018-09-03T11:20:40.051Z,3.80
2018-09-03T11:23:08.360Z,3.50
2018-09-03T11:25:36.597Z,4.65
2018-09-03T11:28:04.971Z,4.22
2018-09-03T11:30:33.295Z,4.08
2018-09-03T11:33:02.810Z,3.95
2018-09-03T11:35:31.074Z,4.58
2018-09-03T11:37:59.337Z,4.17
2018-09-03T11:40:27.616Z,3.72
2018-09-03T11:42:55.919Z,3.50
2018-09-03T11:45:24.572Z,4.33
2018-09-03T11:47:52.883Z,4.72
2018-09-03T11:50:21.452Z,4.45
2018-09-03T11:52:49.847Z,4.33
2018-09-03T11:55:18.104Z,4.72
2018-09-03T11:57:46.396Z,4.33
2018-09-03T12:00:20.973Z,3.80
2018-09-03T12:02:49.314Z,3.90
2018-09-03T12:05:17.633Z,3.70
2018-09-03T12:07:45.946Z,4.28
2018-09-03T12:10:14.201Z,4.20
2018-09-03T12:12:42.466Z,4.22
2018-09-03T12:15:17.091Z,4.08
2018-09-03T12:17:45.330Z,4.17
2018-09-03T12:20:13.662Z,3.77
2018-09-03T12:22:41.963Z,3.87
2018-09-03T12:25:11.270Z,4.12
2018-09-03T12:27:39.568Z,3.72
2018-09-03T12:30:08.086Z,3.55
2018-09-03T12:32:36.596Z,3.80
2018-09-03T12:35:04.973Z,3.60
2018-09-03T12:37:33.266Z,3.77
2018-09-03T12:40:01.499Z,4.50
2018-09-03T12:42:29.819Z,3.50
2018-09-03T12:44:58.059Z,3.50
2018-09-03T12:47:26.379Z,3.60
2018-09-03T12:49:54.666Z,3.67
2018-09-03T12:52:23.045Z,3.25
2018-09-03T12:54:51.381Z,4.20
2018-09-03T12:57:19.874Z,3.52
2018-09-03T12:59:48.155Z,3.87
2018-09-03T13:02:16.484Z,4.12
2018-09-03T13:04:44.802Z,3.40
2018-09-03T13:07:13.682Z,3.42
2018-09-03T13:09:41.992Z,3.37
2018-09-03T13:12:10.253Z,3.58
2018-09-03T13:14:38.559Z,3.67
2018-09-03T13:17:06.805Z,4.05
2018-09-03T13:19:35.143Z,3.85
2018-09-03T13:22:03.472Z,3.22
2018-09-03T13:24:31.726Z,3.62
2018-09-03T13:27:00.024Z,3.52
2018-09-03T13:29:28.291Z,3.22
2018-09-03T13:31:56.592Z,3.27
2018-09-03T13:34:24.899Z,3.20
2018-09-03T13:36:53.241Z,3.60
2018-09-03T13:39:21.504Z,3.55
2018-09-03T13:41:49.834Z,3.12
2018-09-03T13:44:18.167Z,3.33
2018-09-03T13:46:46.425Z,3.67
2018-09-03T13:49:14.724Z,2.90
2018-09-03T13:51:42.998Z,3.02
2018-09-03T13:54:11.394Z,3.45
2018-09-03T13:56:39.672Z,3.37
2018-09-03T13:59:07.975Z,3.25
2018-09-03T14:01:36.292Z,3.72
2018-09-03T14:04:04.604Z,3.37
2018-09-03T14:06:33.150Z,3.75
2018-09-03T14:09:01.364Z,3.33
2018-09-03T14:11:29.664Z,3.20
2018-09-03T14:13:57.901Z,3.10
2018-09-03T14:16:26.185Z,3.37
2018-09-03T14:18:54.443Z,3.58
2018-09-03T14:21:22.707Z,3.05
2018-09-03T14:23:51.003Z,3.40
2018-09-03T14:26:19.253Z,3.08
2018-09-03T14:28:47.540Z,3.65
2018-09-03T14:31:15.823Z,3.55
2018-09-03T14:33:44.118Z,3.00
2018-09-03T14:36:12.372Z,3.45
2018-09-03T14:38:40.714Z,3.50
2018-09-03T14:41:09.016Z,2.90
2018-09-03T14:43:37.329Z,3.60
2018-09-03T14:46:05.714Z,3.20
2018-09-03T14:48:33.960Z,3.30
2018-09-03T14:51:02.230Z,3.25
2018-09-03T14:53:30.523Z,4.00
2018-09-03T14:55:58.810Z,3.05
2018-09-03T14:58:27.106Z,3.58
2018-09-03T15:00:55.378Z,3.67
2018-09-03T15:03:23.695Z,3.15
2018-09-03T15:05:52.031Z,3.20
2018-09-03T15:08:20.345Z,3.52
2018-09-03T15:10:48.643Z,2.85
2018-09-03T15:13:16.942Z,3.37
2018-09-03T15:15:45.260Z,3.25
2018-09-03T15:18:13.927Z,3.12
2018-09-03T15:20:42.188Z,3.33
2018-09-03T15:23:10.499Z,4.20
2018-09-03T15:25:38.750Z,3.30
2018-09-03T15:28:07.067Z,3.05
2018-09-03T15:30:35.359Z,2.98
2018-09-03T15:33:03.678Z,3.30
2018-09-03T15:35:31.949Z,3.70
2018-09-03T15:38:00.266Z,3.45
2018-09-03T15:40:28.499Z,3.10
2018-09-03T15:42:56.827Z,3.45
2018-09-03T15:45:25.078Z,3.45
2018-09-03T15:47:54.545Z,3.77
2018-09-03T15:50:22.874Z,3.05
2018-09-03T15:52:51.194Z,3.05
2018-09-03T15:55:19.490Z,3.52
2018-09-03T15:57:47.746Z,3.45
2018-09-03T16:00:16.102Z,3.77
2018-09-03T16:02:44.407Z,3.52
2018-09-03T16:05:12.716Z,3.08
2018-09-03T16:07:40.961Z,3.55
2018-09-03T16:10:09.212Z,3.00
2018-09-03T16:12:37.533Z,3.27
2018-09-03T16:15:05.999Z,2.77
2018-09-03T16:17:34.289Z,3.50
2018-09-03T16:20:02.590Z,3.45
2018-09-03T16:22:30.865Z,3.55
2018-09-03T16:24:59.131Z,3.62
2018-09-03T16:27:27.419Z,2.92
2018-09-03T16:29:55.696Z,3.33
2018-09-03T16:32:23.988Z,3.37
2018-09-03T16:34:52.254Z,4.20
2018-09-03T16:37:20.503Z,3.20
2018-09-03T16:39:48.879Z,3.27
2018-09-03T16:42:17.155Z,3.02
2018-09-03T16:44:45.460Z,3.40
2018-09-03T16:47:13.787Z,3.70
2018-09-03T16:49:42.110Z,3.27
2018-09-03T16:52:10.391Z,3.37
2018-09-03T16:54:38.743Z,3.35
2018-09-03T16:57:07.033Z,3.70
2018-09-03T16:59:35.335Z,3.42
2018-09-03T17:02:03.589Z,3.47
2018-09-03T17:04:31.894Z,3.10
2018-09-03T17:07:00.331Z,3.30
2018-09-03T17:09:28.681Z,3.33
2018-09-03T17:11:57.078Z,4.03
2018-09-03T17:14:25.407Z,3.55
2018-09-03T17:16:53.626Z,3.33
2018-09-03T17:19:22.004Z,3.45
2018-09-03T17:21:50.422Z,3.40
2018-09-03T17:24:18.722Z,2.87
2018-09-03T17:26:47.001Z,3.02
2018-09-03T17:29:15.260Z,3.42
2018-09-03T17:31:43.727Z,2.85
2018-09-03T17:34:12.072Z,3.20
2018-09-03T17:36:40.372Z,2.33
2018-09-03T17:39:09.453Z,2.30
2018-09-03T17:41:37.771Z,2.87
2018-09-03T17:44:06.163Z,2.95
2018-09-03T17:46:35.428Z,2.83
2018-09-03T17:49:03.738Z,2.90
2018-09-03T17:51:32.006Z,2.85
2018-09-03T17:54:00.353Z,2.70
2018-09-03T17:56:28.665Z,2.65
2018-09-03T17:58:56.928Z,2.37
2018-09-03T18:01:25.219Z,2.33
2018-09-03T18:03:53.491Z,2.30
2018-09-03T18:06:21.793Z,2.42
2018-09-03T18:08:51.121Z,2.50
2018-09-03T18:11:19.465Z,2.58
2018-09-03T18:13:48.752Z,2.42
2018-09-03T18:21:04.791Z,2.17
2018-09-03T18:23:33.104Z,3.10
2018-09-03T18:26:01.434Z,2.30
2018-09-03T18:28:29.670Z,3.02
2018-09-03T18:30:57.976Z,2.57
2018-09-03T18:33:26.231Z,2.87
2018-09-03T18:35:54.630Z,3.00
2018-09-03T18:38:22.892Z,1.90
2018-09-03T18:40:51.203Z,2.17
2018-09-03T18:43:19.470Z,2.90
2018-09-03T18:45:47.765Z,2.67
2018-09-03T18:48:16.029Z,2.80
2018-09-03T18:50:45.760Z,2.83
2018-09-03T18:53:14.551Z,2.95
2018-09-03T18:55:43.641Z,2.80
2018-09-03T18:58:11.858Z,2.80
2018-09-03T19:00:40.192Z,2.42
2018-09-03T19:03:08.606Z,2.92
2018-09-03T19:05:37.063Z,2.80
2018-09-03T19:08:05.671Z,2.60
2018-09-03T19:10:34.219Z,3.05
2018-09-03T19:13:02.500Z,2.90
2018-09-03T19:15:30.767Z,2.93
2018-09-03T19:17:59.073Z,2.43
2018-09-03T19:20:27.327Z,1.92
2018-09-03T19:22:55.588Z,2.80
2018-09-03T19:25:24.001Z,2.83
2018-09-03T19:27:52.252Z,2.20
2018-09-03T19:30:20.550Z,2.80
2018-09-03T19:32:48.837Z,2.93
2018-09-03T19:35:17.280Z,2.70
2018-09-03T19:37:45.550Z,2.17
2018-09-03T19:40:13.945Z,2.53
2018-09-03T19:42:42.266Z,3.37
2018-09-03T19:45:10.674Z,3.15
2018-09-03T19:47:39.007Z,3.10
2018-09-03T19:50:07.459Z,2.70
2018-09-03T19:52:35.829Z,2.90
2018-09-03T19:55:04.293Z,2.80
2018-09-03T19:57:32.640Z,2.77
2018-09-03T20:00:01.086Z,2.90
2018-09-03T20:02:29.388Z,3.17
2018-09-03T20:04:57.742Z,3.20
2018-09-03T20:07:26.054Z,2.73
2018-09-03T20:09:54.407Z,2.60
2018-09-03T20:12:22.758Z,2.77
2018-09-03T20:14:51.068Z,2.93
2018-09-03T20:17:19.530Z,3.25
2018-09-03T20:19:47.882Z,3.27
2018-09-03T20:22:17.864Z,2.83
2018-09-03T20:24:46.132Z,3.20
2018-09-03T20:27:14.448Z,3.25
2018-09-03T20:29:46.694Z,3.27
2018-09-03T20:32:15.083Z,3.70
2018-09-03T20:34:43.509Z,3.47
2018-09-03T20:37:11.823Z,3.23
2018-09-03T20:39:40.107Z,3.17
2018-09-03T20:42:09.187Z,3.50
2018-09-03T20:44:37.463Z,2.80
2018-09-03T20:47:05.751Z,2.80
2018-09-03T20:49:34.118Z,2.98
2018-09-03T20:52:03.087Z,3.60
2018-09-03T20:54:31.479Z,2.90
2018-09-03T20:56:59.816Z,3.10
2018-09-03T20:59:28.653Z,3.63
2018-09-03T21:01:57.036Z,3.00
2018-09-03T21:04:25.296Z,2.87
2018-09-03T21:06:53.593Z,3.07
2018-09-03T21:09:21.849Z,2.90
2018-09-03T21:11:50.193Z,3.37
2018-09-03T21:14:18.508Z,2.87
2018-09-03T21:16:46.827Z,3.03
2018-09-03T21:19:15.230Z,3.20
2018-09-03T21:21:43.882Z,3.20
2018-09-03T21:24:12.147Z,3.07
2018-09-03T21:26:40.514Z,2.70
2018-09-03T21:29:08.791Z,3.07
2018-09-03T21:31:37.064Z,3.00
2018-09-03T21:34:05.345Z,2.63
2018-09-03T21:36:33.671Z,3.07
2018-09-03T21:39:02.091Z,3.20
2018-09-03T21:41:30.458Z,3.40
2018-09-03T21:43:58.780Z,3.57
2018-09-03T21:46:27.130Z,2.83
2018-09-03T21:48:55.476Z,3.10
2018-09-03T21:51:23.819Z,2.67
2018-09-03T21:53:52.137Z,3.10
2018-09-03T21:59:02.009Z,2.67
2018-09-03T22:01:30.377Z,2.30
2018-09-03T22:03:58.645Z,2.67
2018-09-03T22:06:27.282Z,2.60
2018-09-03T22:08:55.554Z,2.93
2018-09-03T22:11:23.842Z,2.70
2018-09-03T22:13:52.098Z,2.60
2018-09-03T22:16:20.464Z,2.57
2018-09-03T22:18:48.782Z,2.73
2018-09-03T22:21:17.102Z,2.47
2018-09-03T22:23:45.468Z,2.93
2018-09-03T22:26:13.849Z,2.67
2018-09-03T22:28:42.182Z,2.17
2018-09-03T22:31:10.460Z,3.07
2018-09-03T22:33:38.782Z,2.80
2018-09-03T22:36:07.568Z,2.73
2018-09-03T22:38:36.009Z,2.60
2018-09-03T22:41:04.757Z,2.80
2018-09-03T22:43:33.122Z,2.77
2018-09-03T22:46:01.487Z,2.50
2018-09-03T22:48:29.757Z,2.27
2018-09-03T22:50:58.054Z,2.90
2018-09-03T22:53:26.412Z,2.80
2018-09-03T22:55:54.756Z,2.80
2018-09-03T22:58:23.092Z,2.73
2018-09-03T23:00:51.443Z,3.17
2018-09-03T23:03:19.953Z,2.33
2018-09-03T23:05:48.325Z,2.70
2018-09-03T23:08:17.730Z,2.90
2018-09-03T23:10:46.103Z,2.80
2018-09-03T23:13:14.404Z,2.83
2018-09-03T23:15:48.808Z,2.67
2018-09-03T23:18:17.141Z,3.00
2018-09-03T23:20:45.460Z,2.87
2018-09-03T23:23:13.735Z,2.87
2018-09-03T23:25:42.101Z,2.73
2018-09-03T23:28:10.479Z,2.30
2018-09-03T23:30:38.787Z,2.50
2018-09-03T23:33:07.172Z,2.63
2018-09-03T23:35:35.613Z,2.33
2018-09-03T23:38:03.873Z,2.67
2018-09-03T23:40:32.167Z,2.63
2018-09-03T23:43:00.444Z,2.90
2018-09-03T23:45:28.696Z,2.37
2018-09-03T23:47:57.022Z,2.67
2018-09-03T23:50:25.381Z,2.93
2018-09-03T23:52:53.680Z,2.67
2018-09-03T23:55:22.036Z,2.60
2018-09-03T23:57:50.301Z,2.80
